sensor_id;sensor_type;location;lat;lon;timestamp;P1;durP1;ratioP1;P2;durP2;ratioP2
11211;SDS011;5663;50.864;12.096;2023-05-07T00:00:46;19.67;;;14.90;;
11211;SDS011;5663;50.864;12.096;2023-05-07T00:03:18;19.17;;;14.47;;
11211;SDS011;5663;50.864;12.096;2023-05-07T00:06:01;19.77;;;15.40;;
11211;SDS011;5663;50.864;12.096;2023-05-07T00:08:34;20.67;;;15.07;;
11211;SDS011;5663;50.864;12.096;2023-05-07T00:11:11;21.63;;;16.00;;
11211;SDS011;5663;50.864;12.096;2023-05-07T00:13:42;20.90;;;14.90;;
11211;SDS011;5663;50.864;12.096;2023-05-07T00:16:19;23.03;;;15.33;;
11211;SDS011;5663;50.864;12.096;2023-05-07T01:20:00;14.57;;;9.90;;
11211;SDS011;5663;50.864;12.096;2023-05-07T01:22:36;11.63;;;9.50;;
11211;SDS011;5663;50.864;12.096;2023-05-07T01:25:10;14.17;;;10.13;;
11211;SDS011;5663;50.864;12.096;2023-05-07T01:27:41;13.97;;;10.20;;
11211;SDS011;5663;50.864;12.096;2023-05-07T01:30:14;13.30;;;10.23;;
11211;SDS011;5663;50.864;12.096;2023-05-07T01:32:52;12.53;;;9.27;;
11211;SDS011;5663;50.864;12.096;2023-05-07T01:35:34;11.37;;;9.20;;
11211;SDS011;5663;50.864;12.096;2023-05-07T01:38:19;13.27;;;9.17;;
11211;SDS011;5663;50.864;12.096;2023-05-07T01:40:55;10.77;;;8.77;;
11211;SDS011;5663;50.864;12.096;2023-05-07T01:43:31;12.87;;;9.90;;
11211;SDS011;5663;50.864;12.096;2023-05-07T01:46:08;14.57;;;9.70;;
11211;SDS011;5663;50.864;12.096;2023-05-07T01:48:46;12.43;;;9.50;;
11211;SDS011;5663;50.864;12.096;2023-05-07T01:51:25;12.07;;;9.10;;
11211;SDS011;5663;50.864;12.096;2023-05-07T01:53:59;11.03;;;8.93;;
11211;SDS011;5663;50.864;12.096;2023-05-07T01:56:31;12.03;;;9.60;;
11211;SDS011;5663;50.864;12.096;2023-05-07T01:59:03;12.33;;;9.27;;
11211;SDS011;5663;50.864;12.096;2023-05-07T02:01:40;13.50;;;10.47;;
11211;SDS011;5663;50.864;12.096;2023-05-07T02:04:14;13.37;;;10.70;;
11211;SDS011;5663;50.864;12.096;2023-05-07T02:06:52;14.83;;;11.17;;
11211;SDS011;5663;50.864;12.096;2023-05-07T02:09:23;14.63;;;10.93;;
11211;SDS011;5663;50.864;12.096;2023-05-07T02:11:59;14.43;;;11.33;;
11211;SDS011;5663;50.864;12.096;2023-05-07T02:14:32;14.40;;;11.23;;
11211;SDS011;5663;50.864;12.096;2023-05-07T02:17:08;14.33;;;10.93;;
11211;SDS011;5663;50.864;12.096;2023-05-07T02:19:40;13.63;;;10.53;;
11211;SDS011;5663;50.864;12.096;2023-05-07T02:22:20;14.37;;;10.57;;
11211;SDS011;5663;50.864;12.096;2023-05-07T02:25:02;14.23;;;10.23;;
11211;SDS011;5663;50.864;12.096;2023-05-07T02:27:38;14.60;;;10.47;;
11211;SDS011;5663;50.864;12.096;2023-05-07T02:30:14;16.17;;;11.53;;
11211;SDS011;5663;50.864;12.096;2023-05-07T02:32:50;15.87;;;12.03;;
11211;SDS011;5663;50.864;12.096;2023-05-07T02:35:23;17.27;;;11.87;;
11211;SDS011;5663;50.864;12.096;2023-05-07T02:37:54;14.20;;;11.00;;
11211;SDS011;5663;50.864;12.096;2023-05-07T02:40:29;14.20;;;11.87;;
11211;SDS011;5663;50.864;12.096;2023-05-07T02:43:04;15.33;;;12.07;;
11211;SDS011;5663;50.864;12.096;2023-05-07T02:45:44;17.50;;;13.07;;
11211;SDS011;5663;50.864;12.096;2023-05-07T02:48:18;20.00;;;14.80;;
11211;SDS011;5663;50.864;12.096;2023-05-07T02:50:52;22.43;;;15.03;;
11211;SDS011;5663;50.864;12.096;2023-05-07T02:53:23;19.50;;;14.60;;
11211;SDS011;5663;50.864;12.096;2023-05-07T02:56:00;21.73;;;16.33;;
11211;SDS011;5663;50.864;12.096;2023-05-07T02:58:37;26.00;;;18.90;;
11211;SDS011;5663;50.864;12.096;2023-05-07T03:01:13;26.53;;;18.70;;
11211;SDS011;5663;50.864;12.096;2023-05-07T03:03:50;25.33;;;18.77;;
11211;SDS011;5663;50.864;12.096;2023-05-07T03:06:22;24.27;;;17.80;;
11211;SDS011;5663;50.864;12.096;2023-05-07T03:08:56;25.27;;;18.37;;
11211;SDS011;5663;50.864;12.096;2023-05-07T03:11:43;25.20;;;18.50;;
11211;SDS011;5663;50.864;12.096;2023-05-07T03:14:15;26.13;;;18.40;;
11211;SDS011;5663;50.864;12.096;2023-05-07T03:16:47;25.77;;;19.57;;
11211;SDS011;5663;50.864;12.096;2023-05-07T03:19:20;28.20;;;19.20;;
11211;SDS011;5663;50.864;12.096;2023-05-07T08:23:17;16.17;;;12.80;;
11211;SDS011;5663;50.864;12.096;2023-05-07T08:25:53;17.10;;;13.03;;
11211;SDS011;5663;50.864;12.096;2023-05-07T08:28:30;15.30;;;12.03;;
11211;SDS011;5663;50.864;12.096;2023-05-07T08:31:08;16.77;;;12.23;;
11211;SDS011;5663;50.864;12.096;2023-05-07T08:33:41;16.17;;;12.07;;
11211;SDS011;5663;50.864;12.096;2023-05-07T08:36:14;15.73;;;12.73;;
11211;SDS011;5663;50.864;12.096;2023-05-07T08:39:00;20.33;;;12.37;;
11211;SDS011;5663;50.864;12.096;2023-05-07T08:41:43;14.97;;;11.83;;
11211;SDS011;5663;50.864;12.096;2023-05-07T08:44:33;15.17;;;11.57;;
11211;SDS011;5663;50.864;12.096;2023-05-07T08:47:06;15.73;;;12.20;;
11211;SDS011;5663;50.864;12.096;2023-05-07T08:49:36;14.73;;;11.63;;
11211;SDS011;5663;50.864;12.096;2023-05-07T08:52:21;16.77;;;12.40;;
11211;SDS011;5663;50.864;12.096;2023-05-07T08:55:16;15.40;;;11.67;;
11211;SDS011;5663;50.864;12.096;2023-05-07T08:57:52;15.63;;;11.43;;
11211;SDS011;5663;50.864;12.096;2023-05-07T09:00:39;13.37;;;10.50;;
11211;SDS011;5663;50.864;12.096;2023-05-07T09:03:30;11.97;;;10.23;;
11211;SDS011;5663;50.864;12.096;2023-05-07T09:06:06;11.87;;;9.37;;
11211;SDS011;5663;50.864;12.096;2023-05-07T09:08:44;11.53;;;10.10;;
11211;SDS011;5663;50.864;12.096;2023-05-07T09:11:29;13.13;;;10.40;;
11211;SDS011;5663;50.864;12.096;2023-05-07T09:14:15;12.07;;;9.53;;
11211;SDS011;5663;50.864;12.096;2023-05-07T09:16:54;13.37;;;9.67;;
11211;SDS011;5663;50.864;12.096;2023-05-07T09:19:23;12.77;;;10.37;;
11211;SDS011;5663;50.864;12.096;2023-05-07T10:24:19;11.37;;;9.00;;
11211;SDS011;5663;50.864;12.096;2023-05-07T10:27:04;9.60;;;8.40;;
11211;SDS011;5663;50.864;12.096;2023-05-07T14:22:20;6.53;;;5.93;;
11211;SDS011;5663;50.864;12.096;2023-05-07T14:24:54;7.17;;;6.43;;
11211;SDS011;5663;50.864;12.096;2023-05-07T14:27:31;7.13;;;6.43;;
11211;SDS011;5663;50.864;12.096;2023-05-07T14:30:07;7.63;;;6.93;;
11211;SDS011;5663;50.864;12.096;2023-05-07T14:32:41;7.77;;;7.07;;
11211;SDS011;5663;50.864;12.096;2023-05-07T14:35:11;7.00;;;6.30;;
11211;SDS011;5663;50.864;12.096;2023-05-07T14:37:53;7.00;;;6.30;;
11211;SDS011;5663;50.864;12.096;2023-05-07T14:40:31;7.50;;;6.10;;
11211;SDS011;5663;50.864;12.096;2023-05-07T14:43:03;7.23;;;6.27;;
11211;SDS011;5663;50.864;12.096;2023-05-07T14:45:44;6.70;;;6.10;;
11211;SDS011;5663;50.864;12.096;2023-05-07T14:48:16;7.60;;;6.40;;
11211;SDS011;5663;50.864;12.096;2023-05-07T14:50:58;7.63;;;6.30;;
11211;SDS011;5663;50.864;12.096;2023-05-07T14:53:45;7.17;;;6.47;;
11211;SDS011;5663;50.864;12.096;2023-05-07T14:56:21;7.30;;;6.60;;
11211;SDS011;5663;50.864;12.096;2023-05-07T14:58:58;7.70;;;6.47;;
11211;SDS011;5663;50.864;12.096;2023-05-07T15:01:48;6.50;;;5.90;;
11211;SDS011;5663;50.864;12.096;2023-05-07T15:04:31;6.50;;;5.90;;
11211;SDS011;5663;50.864;12.096;2023-05-07T15:07:14;9.97;;;6.57;;
11211;SDS011;5663;50.864;12.096;2023-05-07T15:09:51;7.23;;;6.53;;
11211;SDS011;5663;50.864;12.096;2023-05-07T15:12:31;7.00;;;6.30;;
11211;SDS011;5663;50.864;12.096;2023-05-07T15:15:11;8.13;;;6.67;;
11211;SDS011;5663;50.864;12.096;2023-05-07T15:17:53;7.00;;;6.30;;
11211;SDS011;5663;50.864;12.096;2023-05-07T15:20:54;6.83;;;6.17;;
11211;SDS011;5663;50.864;12.096;2023-05-07T20:24:20;7.63;;;6.90;;
11211;SDS011;5663;50.864;12.096;2023-05-07T20:26:51;9.60;;;7.47;;
11211;SDS011;5663;50.864;12.096;2023-05-07T20:29:21;8.77;;;7.83;;
11211;SDS011;5663;50.864;12.096;2023-05-07T20:31:51;8.63;;;7.73;;
11211;SDS011;5663;50.864;12.096;2023-05-07T20:34:19;9.17;;;7.93;;
11211;SDS011;5663;50.864;12.096;2023-05-07T20:36:48;10.53;;;7.37;;
11211;SDS011;5663;50.864;12.096;2023-05-07T20:39:18;9.37;;;8.47;;
11211;SDS011;5663;50.864;12.096;2023-05-07T20:41:48;9.37;;;8.47;;
11211;SDS011;5663;50.864;12.096;2023-05-07T20:44:19;8.77;;;7.87;;
11211;SDS011;5663;50.864;12.096;2023-05-07T20:46:48;9.00;;;8.10;;
11211;SDS011;5663;50.864;12.096;2023-05-07T20:49:18;9.47;;;8.50;;
11211;SDS011;5663;50.864;12.096;2023-05-07T20:51:49;10.30;;;7.97;;
11211;SDS011;5663;50.864;12.096;2023-05-07T20:54:17;8.93;;;7.47;;
11211;SDS011;5663;50.864;12.096;2023-05-07T20:56:48;9.00;;;8.10;;
11211;SDS011;5663;50.864;12.096;2023-05-07T20:59:15;8.90;;;8.00;;
11211;SDS011;5663;50.864;12.096;2023-05-07T21:01:43;8.53;;;7.73;;
11211;SDS011;5663;50.864;12.096;2023-05-07T21:04:11;8.50;;;7.63;;
11211;SDS011;5663;50.864;12.096;2023-05-07T21:06:39;9.23;;;8.27;;
11211;SDS011;5663;50.864;12.096;2023-05-07T21:09:09;8.97;;;8.07;;
11211;SDS011;5663;50.864;12.096;2023-05-07T21:11:38;8.60;;;7.07;;
11211;SDS011;5663;50.864;12.096;2023-05-07T21:14:09;9.87;;;8.70;;
11211;SDS011;5663;50.864;12.096;2023-05-07T21:16:38;10.50;;;7.60;;
11211;SDS011;5663;50.864;12.096;2023-05-07T21:19:09;8.53;;;7.73;;
11211;SDS011;5663;50.864;12.096;2023-05-07T21:21:40;11.93;;;8.20;;
11211;SDS011;5663;50.864;12.096;2023-05-07T21:24:10;10.07;;;8.30;;
11211;SDS011;5663;50.864;12.096;2023-05-07T22:25:37;7.47;;;6.70;;
11211;SDS011;5663;50.864;12.096;2023-05-07T22:28:09;10.37;;;9.27;;
11211;SDS011;5663;50.864;12.096;2023-05-07T22:30:37;10.87;;;8.97;;
11211;SDS011;5663;50.864;12.096;2023-05-07T22:33:10;9.50;;;8.50;;
11211;SDS011;5663;50.864;12.096;2023-05-07T22:35:42;10.43;;;9.37;;
11211;SDS011;5663;50.864;12.096;2023-05-07T22:38:16;10.73;;;8.50;;
11211;SDS011;5663;50.864;12.096;2023-05-07T22:40:49;10.03;;;8.30;;
11211;SDS011;5663;50.864;12.096;2023-05-07T22:43:19;8.90;;;8.00;;
11211;SDS011;5663;50.864;12.096;2023-05-07T22:45:56;9.17;;;8.27;;
11211;SDS011;5663;50.864;12.096;2023-05-07T22:48:27;11.10;;;8.07;;
11211;SDS011;5663;50.864;12.096;2023-05-07T22:50:56;9.97;;;8.93;;
11211;SDS011;5663;50.864;12.096;2023-05-07T22:53:25;10.73;;;9.47;;
11211;SDS011;5663;50.864;12.096;2023-05-07T22:55:56;8.83;;;7.83;;
11211;SDS011;5663;50.864;12.096;2023-05-07T22:58:25;9.10;;;7.83;;
11211;SDS011;5663;50.864;12.096;2023-05-07T23:00:54;9.37;;;8.43;;
11211;SDS011;5663;50.864;12.096;2023-05-07T23:03:24;9.70;;;8.70;;
11211;SDS011;5663;50.864;12.096;2023-05-07T23:05:54;9.80;;;8.80;;
11211;SDS011;5663;50.864;12.096;2023-05-07T23:08:26;10.47;;;9.37;;
11211;SDS011;5663;50.864;12.096;2023-05-07T23:10:59;9.93;;;8.53;;
11211;SDS011;5663;50.864;12.096;2023-05-07T23:13:31;9.77;;;8.60;;
11211;SDS011;5663;50.864;12.096;2023-05-07T23:16:03;10.10;;;9.10;;
11211;SDS011;5663;50.864;12.096;2023-05-07T23:18:34;9.80;;;8.53;;
11211;SDS011;5663;50.864;12.096;2023-05-07T23:21:07;11.03;;;9.63;;
11211;SDS011;5663;50.864;12.096;2023-05-07T23:23:38;12.87;;;8.53;;
11211;SDS011;5663;50.864;12.096;2023-05-07T23:26:09;9.87;;;8.27;;
11211;SDS011;5663;50.864;12.096;2023-05-07T23:28:41;8.67;;;7.67;;
11211;SDS011;5663;50.864;12.096;2023-05-07T23:31:11;13.33;;;9.13;;
11211;SDS011;5663;50.864;12.096;2023-05-07T23:33:41;11.13;;;9.30;;
11211;SDS011;5663;50.864;12.096;2023-05-07T23:36:17;11.63;;;9.03;;
11211;SDS011;5663;50.864;12.096;2023-05-07T23:38:49;10.60;;;9.23;;
11211;SDS011;5663;50.864;12.096;2023-05-07T23:41:21;10.03;;;7.67;;
11211;SDS011;5663;50.864;12.096;2023-05-07T23:43:55;8.87;;;7.97;;
11211;SDS011;5663;50.864;12.096;2023-05-07T23:46:25;10.33;;;9.27;;
11211;SDS011;5663;50.864;12.096;2023-05-07T23:48:55;11.20;;;8.87;;
11211;SDS011;5663;50.864;12.096;2023-05-07T23:51:24;10.67;;;9.57;;
11211;SDS011;5663;50.864;12.096;2023-05-07T23:53:53;10.40;;;9.33;;
11211;SDS011;5663;50.864;12.096;2023-05-07T23:56:25;9.70;;;8.60;;
11211;SDS011;5663;50.864;12.096;2023-05-07T23:58:56;9.47;;;8.40;;
